首页
METAR-TAF:

METAR-TAF

机场 :

努庫斯機場

努库斯, 乌兹别克斯坦

纬度: 42-28-48N, 经度: 059-37-48E, 海拔: 77米

当前天气观测

该预报发布于30分钟前的15:30 UTC
风速6节,风向
温度 21°C
湿度 33%
气压 1012 hPa
能见度10公里或以上
1500米以下无云,无积雨云

METAR: UTNN 021530Z 08006KT CAVOK 21/04 Q1012 R33/CLRD60 NOSIG

时间: 21:00 (16:00 UTC)

预报

该预报发布于5小时和0分钟前的11:00 UTC
预报有效从02日的 12点(UTC)到 03日的 12点(UTC)
风速10节,风向,有时为20节阵风
能见度10公里或以上
散云层高于4000英尺
多云层高于10000英尺
短暂存在
从 02日的 12点(UTC)到 02日的 20点(UTC)
风速14节,风向多变,有时为24节阵风
多云层高于2000英尺, 积雨云.
多云层高于10000英尺
成为
从 03日的 02点(UTC)到 03日的 04点(UTC)
风速10节,风向西转西南,有时为20节阵风

TAF: UTNN 021100Z 0212/0312 09010G20KT 9999 SCT040 BKN100 TEMPO 0212/0220 VRB14G24KT BKN020CB BKN100 BECMG 0302/0304 24010G20KT

超过4000个机场的气象观测和天气预报(METAR&TAF报告)。

可查询的气象台以黄色和红色小点在地图上表示。

将鼠标移到小点上方,可查看气象台名称。

然后点击查看天气观测和预报。

如需切换地图:点击带黑十字的绿色按钮放大地图;点击带横线的绿色按钮缩小地图;或者点击绿色箭头查看邻近地区的地图。


METAR-TAF: